createdAt,value
2023-02-06T00:01:15.985Z,80.58
2023-02-06T00:03:45.377Z,80.05
2023-02-06T00:06:14.523Z,79.78
2023-02-06T00:08:51.953Z,79.57
2023-02-06T00:11:21.612Z,79.45
2023-02-06T00:13:51.770Z,79.45
2023-02-06T00:16:22.536Z,78.65
2023-02-06T00:18:52.346Z,78.06
2023-02-06T00:21:30.454Z,77.70
2023-02-06T00:24:03.138Z,77.42
2023-02-06T00:26:33.028Z,78.30
2023-02-06T00:29:02.165Z,77.75
2023-02-06T00:31:31.562Z,78.46
2023-02-06T00:34:01.112Z,78.40
2023-02-06T00:36:30.610Z,77.69
2023-02-06T00:39:02.669Z,77.42
2023-02-06T00:41:31.947Z,76.93
2023-02-06T00:44:01.151Z,77.19
2023-02-06T00:46:32.304Z,76.94
2023-02-06T00:49:01.772Z,77.55
2023-02-06T00:51:31.486Z,78.29
2023-02-06T00:54:02.790Z,78.73
2023-02-06T00:56:36.998Z,78.92
2023-02-06T00:59:06.169Z,78.78
2023-02-06T01:01:35.693Z,78.42
2023-02-06T01:04:04.945Z,77.36
2023-02-06T01:09:11.365Z,77.51
2023-02-06T01:11:47.836Z,76.31
2023-02-06T01:14:17.395Z,77.85
2023-02-06T01:16:46.733Z,77.70
2023-02-06T01:19:15.949Z,77.51
2023-02-06T01:21:45.222Z,76.77
2023-02-06T01:24:16.398Z,77.09
2023-02-06T01:26:50.782Z,76.44
2023-02-06T01:29:20.227Z,76.63
2023-02-06T01:31:54.601Z,76.12
2023-02-06T01:34:23.784Z,76.93
2023-02-06T01:36:52.962Z,76.57
2023-02-06T01:39:29.123Z,77.00
2023-02-06T01:41:59.781Z,77.31
2023-02-06T01:44:40.251Z,77.17
2023-02-06T01:47:12.899Z,76.69
2023-02-06T01:49:46.442Z,77.91
2023-02-06T01:52:20.255Z,77.96
2023-02-06T01:54:57.326Z,77.52
2023-02-06T01:57:28.742Z,77.05
2023-02-06T02:00:02.853Z,77.38
2023-02-06T02:02:47.943Z,77.22
2023-02-06T02:05:19.838Z,77.53
2023-02-06T02:07:52.869Z,76.74
2023-02-06T02:10:24.164Z,76.93
2023-02-06T02:12:53.345Z,76.61
2023-02-06T02:15:26.579Z,76.35
2023-02-06T02:18:04.305Z,75.85
2023-02-06T02:21:19.000Z,75.66
2023-02-06T02:23:57.781Z,75.90
2023-02-06T02:27:01.924Z,76.14
2023-02-06T02:30:00.685Z,75.95
2023-02-06T02:33:25.477Z,75.70
2023-02-06T02:36:05.632Z,74.86
2023-02-06T02:38:43.742Z,74.43
2023-02-06T02:41:20.759Z,74.66
2023-02-06T02:44:02.760Z,75.44
2023-02-06T02:46:36.925Z,75.93
2023-02-06T02:49:15.363Z,75.97
2023-02-06T02:51:48.488Z,76.03
2023-02-06T02:54:24.042Z,76.14
2023-02-06T02:57:02.698Z,76.40
2023-02-06T02:59:42.448Z,75.09
2023-02-06T03:02:14.960Z,75.46
2023-02-06T03:04:55.480Z,75.20
2023-02-06T03:07:34.527Z,74.54
2023-02-06T03:10:20.660Z,75.00
2023-02-06T03:12:57.085Z,75.92
2023-02-06T03:15:32.958Z,75.99
2023-02-06T03:18:17.282Z,75.73
2023-02-06T03:20:49.133Z,74.67
2023-02-06T03:23:33.638Z,74.36
2023-02-06T03:26:17.398Z,74.99
2023-02-06T03:28:51.666Z,75.37
2023-02-06T03:31:26.738Z,75.05
2023-02-06T03:34:01.454Z,75.46
2023-02-06T03:39:15.174Z,75.88
2023-02-06T03:41:46.727Z,75.74
2023-02-06T03:44:20.569Z,75.51
2023-02-06T03:46:51.267Z,74.91
2023-02-06T03:49:29.842Z,75.70
2023-02-06T03:52:12.819Z,76.69
2023-02-06T03:54:52.208Z,77.47
2023-02-06T03:57:28.290Z,78.61
2023-02-06T03:59:57.521Z,78.56
2023-02-06T04:02:33.007Z,77.87
2023-02-06T04:05:07.258Z,76.84
2023-02-06T04:07:38.422Z,75.50
2023-02-06T04:10:10.305Z,75.85
2023-02-06T04:12:39.165Z,75.90
2023-02-06T04:15:09.008Z,75.71
2023-02-06T04:17:58.985Z,75.96
2023-02-06T04:20:34.235Z,76.19
2023-02-06T04:23:03.408Z,75.38
2023-02-06T04:25:35.271Z,75.72
2023-02-06T04:28:05.503Z,75.85
2023-02-06T04:30:34.626Z,75.99
2023-02-06T04:33:03.795Z,75.39
2023-02-06T04:35:33.546Z,75.64
2023-02-06T04:38:02.696Z,75.43
2023-02-06T04:40:33.722Z,75.67
2023-02-06T04:43:02.912Z,75.82
2023-02-06T04:45:31.997Z,75.27
2023-02-06T04:48:01.237Z,75.27
2023-02-06T04:50:31.495Z,75.34
2023-02-06T04:53:00.661Z,77.08
2023-02-06T04:55:37.860Z,78.92
2023-02-06T04:58:07.014Z,79.35
2023-02-06T05:00:38.541Z,80.03
2023-02-06T05:03:07.638Z,80.81
2023-02-06T05:05:37.349Z,79.50
2023-02-06T05:08:13.413Z,78.86
2023-02-06T05:10:44.575Z,78.11
2023-02-06T05:13:13.990Z,77.16
2023-02-06T05:15:43.099Z,76.68
2023-02-06T05:18:12.499Z,77.17
2023-02-06T05:20:42.013Z,77.36
2023-02-06T05:23:16.163Z,77.42
2023-02-06T05:25:52.365Z,77.45
2023-02-06T05:28:21.604Z,76.88
2023-02-06T05:30:51.009Z,77.30
2023-02-06T05:33:30.634Z,77.18
2023-02-06T05:36:03.785Z,77.93
2023-02-06T05:38:37.980Z,77.86
2023-02-06T05:41:09.026Z,78.37
2023-02-06T05:43:38.751Z,78.20
2023-02-06T05:46:08.082Z,78.09
2023-02-06T05:48:38.128Z,78.39
2023-02-06T05:51:12.752Z,78.67
2023-02-06T05:53:42.037Z,77.85
2023-02-06T05:56:13.394Z,77.39
2023-02-06T05:58:42.631Z,77.71
2023-02-06T06:01:12.755Z,77.62
2023-02-06T06:03:52.060Z,77.99
2023-02-06T06:06:21.356Z,78.75
2023-02-06T06:08:50.509Z,80.07
2023-02-06T06:11:21.735Z,80.71
2023-02-06T06:13:51.176Z,80.63
2023-02-06T06:16:20.444Z,80.58
2023-02-06T06:18:50.104Z,79.94
2023-02-06T06:21:19.551Z,79.24
2023-02-06T06:23:48.897Z,78.73
2023-02-06T06:28:55.090Z,77.25
2023-02-06T06:31:24.313Z,77.40
2023-02-06T06:33:53.873Z,77.34
2023-02-06T06:36:23.349Z,77.18
2023-02-06T06:38:52.648Z,77.05
2023-02-06T06:41:23.835Z,78.80
2023-02-06T06:43:53.495Z,80.17
2023-02-06T06:46:24.288Z,81.87
2023-02-06T06:48:59.003Z,83.16
2023-02-06T06:51:28.944Z,83.10
2023-02-06T06:53:58.668Z,82.04
2023-02-06T06:56:30.356Z,81.96
2023-02-06T06:58:59.601Z,81.21
2023-02-06T07:01:28.873Z,81.39
2023-02-06T07:04:04.842Z,81.74
2023-02-06T07:06:34.115Z,81.80
2023-02-06T07:09:03.174Z,81.50
2023-02-06T07:11:34.678Z,81.52
2023-02-06T07:14:04.183Z,81.23
2023-02-06T07:16:33.553Z,81.01
2023-02-06T07:19:02.855Z,79.69
2023-02-06T07:21:31.908Z,78.74
2023-02-06T07:24:01.395Z,78.64
2023-02-06T07:26:30.748Z,77.81
2023-02-06T07:29:12.113Z,77.36
2023-02-06T07:31:41.331Z,77.86
2023-02-06T07:34:10.563Z,77.73
2023-02-06T07:36:45.235Z,76.44
2023-02-06T07:39:14.605Z,76.95
2023-02-06T07:41:45.808Z,76.53
2023-02-06T07:44:17.670Z,75.72
2023-02-06T07:46:47.377Z,75.45
2023-02-06T07:49:17.034Z,75.95
2023-02-06T07:54:31.386Z,75.21
2023-02-06T07:57:00.461Z,74.21
2023-02-06T07:59:31.801Z,73.55
2023-02-06T08:02:01.666Z,75.42
2023-02-06T08:04:39.888Z,74.58
2023-02-06T08:07:14.405Z,75.73
2023-02-06T08:09:44.128Z,75.55
2023-02-06T08:12:13.338Z,74.85
2023-02-06T08:14:50.456Z,74.68
2023-02-06T08:17:20.850Z,74.26
2023-02-06T08:19:55.504Z,74.05
2023-02-06T08:22:24.757Z,73.70
2023-02-06T08:24:54.642Z,73.06
2023-02-06T08:27:31.759Z,72.56
2023-02-06T08:30:08.115Z,72.52
2023-02-06T08:32:38.060Z,71.17
2023-02-06T08:35:08.027Z,70.10
2023-02-06T08:37:42.323Z,70.02
2023-02-06T08:40:13.129Z,69.85
2023-02-06T08:42:42.300Z,70.30
2023-02-06T08:45:13.737Z,69.74
2023-02-06T08:47:47.950Z,69.38
2023-02-06T08:52:55.987Z,69.83
2023-02-06T08:55:25.477Z,69.33
2023-02-06T08:57:54.967Z,67.98
2023-02-06T09:00:26.828Z,67.03
2023-02-06T09:05:31.942Z,68.69
2023-02-06T09:08:01.082Z,68.41
2023-02-06T09:10:30.414Z,69.35
2023-02-06T09:12:59.635Z,69.14
2023-02-06T09:15:30.770Z,67.95
2023-02-06T09:18:10.779Z,67.38
2023-02-06T09:20:40.050Z,66.35
2023-02-06T09:23:09.173Z,65.53
2023-02-06T09:25:44.177Z,67.07
2023-02-06T09:28:13.502Z,66.57
2023-02-06T09:30:44.669Z,65.93
2023-02-06T09:33:19.011Z,65.44
2023-02-06T09:35:48.153Z,66.34
2023-02-06T09:38:17.344Z,68.18
2023-02-06T09:40:46.700Z,68.49
2023-02-06T09:43:16.142Z,68.83
2023-02-06T09:45:48.355Z,67.87
2023-02-06T09:48:24.454Z,67.61
2023-02-06T09:51:00.499Z,67.71
2023-02-06T09:53:39.139Z,67.25
2023-02-06T09:56:19.249Z,66.82
2023-02-06T09:59:01.379Z,66.54
2023-02-06T10:01:40.924Z,67.42
2023-02-06T10:04:31.996Z,68.72
2023-02-06T10:07:07.676Z,68.84
2023-02-06T10:09:46.781Z,68.99
2023-02-06T10:12:21.484Z,68.92
2023-02-06T10:15:03.403Z,68.50
2023-02-06T10:17:38.850Z,67.58
2023-02-06T10:20:14.746Z,67.42
2023-02-06T10:22:51.529Z,66.73
2023-02-06T10:25:31.925Z,66.06
2023-02-06T10:28:04.367Z,65.68
2023-02-06T10:30:51.009Z,65.98
2023-02-06T10:33:30.406Z,66.02
2023-02-06T10:36:18.800Z,65.93
2023-02-06T10:39:13.982Z,65.82
2023-02-06T10:41:51.244Z,66.56
2023-02-06T10:44:26.768Z,66.90
2023-02-06T10:47:00.063Z,66.71
2023-02-06T10:49:39.783Z,66.74
2023-02-06T10:52:25.332Z,65.84
2023-02-06T10:54:58.376Z,66.13
2023-02-06T10:57:35.692Z,65.57
2023-02-06T11:00:18.204Z,65.28
2023-02-06T11:03:06.793Z,64.58
2023-02-06T11:05:52.165Z,64.89
2023-02-06T11:08:27.310Z,65.14
2023-02-06T11:10:57.033Z,65.13
2023-02-06T11:13:41.044Z,65.45
2023-02-06T11:16:22.561Z,65.50
2023-02-06T11:19:15.218Z,65.75
2023-02-06T11:21:56.030Z,65.60
2023-02-06T11:24:26.630Z,65.99
2023-02-06T11:26:58.933Z,66.45
2023-02-06T11:32:26.335Z,66.27
2023-02-06T11:35:04.028Z,66.56
2023-02-06T11:37:37.569Z,66.51
2023-02-06T11:40:26.669Z,68.64
2023-02-06T11:43:17.733Z,69.48
2023-02-06T11:45:48.777Z,69.35
2023-02-06T11:48:40.505Z,69.32
2023-02-06T11:51:11.409Z,69.55
2023-02-06T11:54:04.383Z,69.93
2023-02-06T11:56:34.617Z,70.19
2023-02-06T11:59:07.680Z,69.94
2023-02-06T12:01:44.778Z,69.72
2023-02-06T12:04:23.346Z,69.82
2023-02-06T12:06:56.845Z,69.25
2023-02-06T12:09:28.768Z,68.89
2023-02-06T12:12:00.588Z,69.06
2023-02-06T12:14:34.834Z,68.15
2023-02-06T12:17:06.780Z,68.01
2023-02-06T12:19:47.205Z,67.72
2023-02-06T12:22:21.360Z,67.81
2023-02-06T12:24:55.566Z,67.29
2023-02-06T12:27:29.585Z,67.41
2023-02-06T12:30:04.170Z,67.38
2023-02-06T12:32:38.852Z,67.55
2023-02-06T12:35:21.229Z,67.79
2023-02-06T12:37:55.778Z,68.41
2023-02-06T12:40:40.852Z,68.70
2023-02-06T12:43:12.313Z,69.34
2023-02-06T12:45:49.550Z,69.56
2023-02-06T12:53:46.694Z,67.65
2023-02-06T12:59:19.637Z,69.31
2023-02-06T13:01:58.388Z,69.27
2023-02-06T13:04:29.804Z,69.36
2023-02-06T13:07:04.578Z,69.22
2023-02-06T13:09:44.195Z,68.91
2023-02-06T13:12:16.966Z,68.98
2023-02-06T13:14:56.391Z,69.00
2023-02-06T13:17:27.482Z,68.97
2023-02-06T13:20:11.329Z,68.66
2023-02-06T13:22:50.528Z,68.99
2023-02-06T13:26:00.259Z,68.42
2023-02-06T13:28:58.666Z,68.13
2023-02-06T13:31:35.649Z,69.23
2023-02-06T13:34:16.453Z,68.81
2023-02-06T13:36:54.997Z,69.04
2023-02-06T13:39:34.824Z,68.99
2023-02-06T13:42:34.937Z,69.47
2023-02-06T13:45:08.616Z,69.73
2023-02-06T13:48:10.858Z,69.38
2023-02-06T13:50:46.722Z,69.00
2023-02-06T13:53:34.007Z,69.25
2023-02-06T13:56:16.041Z,69.15
2023-02-06T13:59:00.476Z,69.92
2023-02-06T14:01:33.073Z,69.89
2023-02-06T14:04:03.138Z,69.89
2023-02-06T14:06:59.724Z,70.57
2023-02-06T14:09:58.901Z,70.45
2023-02-06T14:12:44.084Z,70.75
2023-02-06T14:15:24.188Z,70.47
2023-02-06T14:18:12.056Z,70.69
2023-02-06T14:23:37.641Z,70.96
2023-02-06T14:26:22.231Z,71.25
2023-02-06T14:29:02.658Z,71.04
2023-02-06T14:34:43.451Z,71.00
2023-02-06T14:37:37.285Z,71.19
2023-02-06T14:40:15.482Z,71.27
2023-02-06T14:42:47.804Z,71.66
2023-02-06T14:45:27.630Z,71.44
2023-02-06T14:47:59.468Z,71.61
2023-02-06T14:50:32.770Z,71.57
2023-02-06T14:53:10.162Z,71.28
2023-02-06T14:55:41.189Z,71.38
2023-02-06T14:58:21.646Z,71.45
2023-02-06T15:00:51.019Z,71.45
2023-02-06T15:03:23.398Z,71.63
2023-02-06T15:08:50.529Z,71.90
2023-02-06T15:11:22.842Z,72.08
2023-02-06T15:13:53.945Z,71.82
2023-02-06T15:16:30.406Z,71.95
2023-02-06T15:19:13.774Z,72.17
2023-02-06T15:21:45.724Z,72.00
2023-02-06T15:24:34.743Z,72.49
2023-02-06T15:27:12.734Z,72.27
2023-02-06T15:29:42.203Z,72.45
2023-02-06T15:35:06.028Z,72.74
2023-02-06T15:37:37.909Z,72.62
2023-02-06T15:40:19.204Z,72.64
2023-02-06T15:42:50.263Z,72.56
2023-02-06T15:45:28.264Z,72.69
2023-02-06T15:47:59.037Z,72.40
2023-02-06T15:50:30.084Z,72.85
2023-02-06T15:53:01.305Z,73.00
2023-02-06T15:55:38.711Z,72.95
2023-02-06T15:58:07.797Z,72.90
2023-02-06T16:00:39.399Z,72.77
2023-02-06T16:03:18.410Z,72.60
2023-02-06T16:05:47.787Z,72.21
2023-02-06T16:08:22.713Z,72.47
2023-02-06T16:11:03.537Z,72.11
2023-02-06T16:13:39.272Z,72.29
2023-02-06T16:16:21.893Z,72.18
2023-02-06T16:18:53.246Z,72.54
2023-02-06T16:21:38.684Z,72.60
2023-02-06T16:24:17.285Z,72.65
2023-02-06T16:26:49.115Z,72.82
2023-02-06T16:29:22.989Z,73.00
2023-02-06T16:34:42.434Z,72.48
2023-02-06T16:37:20.430Z,72.65
2023-02-06T16:39:53.056Z,72.02
2023-02-06T16:42:36.621Z,72.17
2023-02-06T16:45:16.478Z,71.95
2023-02-06T16:47:45.796Z,72.27
2023-02-06T16:50:15.143Z,72.08
2023-02-06T16:52:56.207Z,72.09
2023-02-06T16:55:28.806Z,72.58
2023-02-06T16:58:01.738Z,72.42
2023-02-06T17:00:33.530Z,72.71
2023-02-06T17:03:02.528Z,71.20
2023-02-06T17:05:32.862Z,72.15
2023-02-06T17:08:04.096Z,72.38
2023-02-06T17:10:35.804Z,72.08
2023-02-06T17:13:16.709Z,72.15
2023-02-06T17:15:47.478Z,72.63
2023-02-06T17:18:18.896Z,72.47
2023-02-06T17:20:51.236Z,72.37
2023-02-06T17:23:26.575Z,72.55
2023-02-06T17:25:57.818Z,72.60
2023-02-06T17:28:27.113Z,72.46
2023-02-06T17:30:56.479Z,72.54
2023-02-06T17:33:25.931Z,72.72
2023-02-06T17:35:55.747Z,72.64
2023-02-06T17:38:25.172Z,72.33
2023-02-06T17:40:55.361Z,72.48
2023-02-06T17:43:26.595Z,72.39
2023-02-06T17:45:55.854Z,72.20
2023-02-06T17:48:25.068Z,72.52
2023-02-06T17:53:40.954Z,72.38
2023-02-06T17:56:13.184Z,71.79
2023-02-06T17:58:50.740Z,71.87
2023-02-06T18:01:26.059Z,71.89
2023-02-06T18:04:06.889Z,71.97
2023-02-06T18:06:36.471Z,71.91
2023-02-06T18:09:06.441Z,72.13
2023-02-06T18:11:36.189Z,71.88
2023-02-06T18:14:12.819Z,71.58
2023-02-06T18:16:42.481Z,71.69
2023-02-06T18:19:14.024Z,71.85
2023-02-06T18:21:43.309Z,71.12
2023-02-06T18:24:12.579Z,71.16
2023-02-06T18:26:43.106Z,70.91
2023-02-06T18:29:14.526Z,71.06
2023-02-06T18:31:48.974Z,70.46
2023-02-06T18:34:20.412Z,70.82
2023-02-06T18:36:49.922Z,70.78
2023-02-06T18:39:24.052Z,70.88
2023-02-06T18:42:06.318Z,70.76
2023-02-06T18:44:41.579Z,71.15
2023-02-06T18:47:19.449Z,71.35
2023-02-06T18:49:48.991Z,71.40
2023-02-06T18:52:24.815Z,71.34
2023-02-06T18:54:54.125Z,71.03
2023-02-06T18:57:23.448Z,71.02
2023-02-06T18:59:55.017Z,71.22
2023-02-06T19:02:29.892Z,71.28
2023-02-06T19:04:59.814Z,71.34
2023-02-06T19:07:29.417Z,71.09
2023-02-06T19:09:59.868Z,71.18
2023-02-06T19:12:30.382Z,71.24
2023-02-06T19:15:01.941Z,71.36
2023-02-06T19:17:32.675Z,71.83
2023-02-06T19:20:02.078Z,71.72
2023-02-06T19:22:39.859Z,71.64
2023-02-06T19:25:14.238Z,71.54
2023-02-06T19:27:50.025Z,71.51
2023-02-06T19:30:21.663Z,72.27
2023-02-06T19:32:51.450Z,72.34
2023-02-06T19:35:20.713Z,72.93
2023-02-06T19:37:51.388Z,72.74
2023-02-06T19:40:21.092Z,73.25
2023-02-06T19:42:50.315Z,73.30
2023-02-06T19:45:21.486Z,73.61
2023-02-06T19:47:50.687Z,73.61
2023-02-06T19:50:19.991Z,73.46
2023-02-06T19:52:49.243Z,73.62
2023-02-06T19:55:18.865Z,73.67
2023-02-06T19:57:48.154Z,73.86
2023-02-06T20:05:41.784Z,73.96
2023-02-06T20:08:11.009Z,74.11
2023-02-06T20:10:40.266Z,74.13
2023-02-06T20:13:15.752Z,73.87
2023-02-06T20:15:45.224Z,74.51
2023-02-06T20:18:21.367Z,74.46
2023-02-06T20:20:50.644Z,74.30
2023-02-06T20:23:19.781Z,74.16
2023-02-06T20:25:48.986Z,74.27
2023-02-06T20:28:18.516Z,74.32
2023-02-06T20:30:47.912Z,74.25
2023-02-06T20:33:23.983Z,73.95
2023-02-06T20:35:54.083Z,73.48
2023-02-06T20:38:23.222Z,73.29
2023-02-06T20:40:53.657Z,73.46
2023-02-06T20:43:28.805Z,73.13
2023-02-06T20:45:58.146Z,73.58
2023-02-06T20:48:29.445Z,73.43
2023-02-06T20:51:07.112Z,72.80
2023-02-06T20:53:36.225Z,73.25
2023-02-06T20:56:18.414Z,72.95
2023-02-06T20:58:48.994Z,73.19
2023-02-06T21:01:23.034Z,73.10
2023-02-06T21:03:57.066Z,73.21
2023-02-06T21:06:33.796Z,73.15
2023-02-06T21:09:03.455Z,73.21
2023-02-06T21:11:40.154Z,73.01
2023-02-06T21:14:10.135Z,72.68
2023-02-06T21:16:40.115Z,72.72
2023-02-06T21:19:18.542Z,72.72
2023-02-06T21:21:48.954Z,72.25
2023-02-06T21:24:19.107Z,72.67
2023-02-06T21:26:53.316Z,72.88
2023-02-06T21:29:22.794Z,72.56
2023-02-06T21:32:00.590Z,72.77
2023-02-06T21:34:54.175Z,72.52
2023-02-06T21:37:23.282Z,72.88
2023-02-06T21:39:52.797Z,72.67
2023-02-06T21:42:25.742Z,73.03
2023-02-06T21:45:03.559Z,72.83
2023-02-06T21:47:36.718Z,72.73
2023-02-06T21:50:08.968Z,72.79
2023-02-06T21:52:38.993Z,72.61
2023-02-06T21:55:13.086Z,72.92
2023-02-06T21:57:42.400Z,72.72
2023-02-06T22:00:12.983Z,73.26
2023-02-06T22:02:42.131Z,72.84
2023-02-06T22:05:13.290Z,73.01
2023-02-06T22:07:42.633Z,72.70
2023-02-06T22:10:12.636Z,72.90
2023-02-06T22:12:41.820Z,72.88
2023-02-06T22:15:11.989Z,72.78
2023-02-06T22:17:41.313Z,72.73
2023-02-06T22:20:14.291Z,72.76
2023-02-06T22:22:45.979Z,72.91
2023-02-06T22:25:20.206Z,72.73
2023-02-06T22:27:49.503Z,72.82
2023-02-06T22:30:19.039Z,72.97
2023-02-06T22:32:48.288Z,73.10
2023-02-06T22:35:19.581Z,72.73
2023-02-06T22:37:49.267Z,72.74
2023-02-06T22:40:18.920Z,72.74
2023-02-06T22:42:48.346Z,72.67
2023-02-06T22:45:17.462Z,72.83
2023-02-06T22:47:46.670Z,72.71
2023-02-06T22:50:16.268Z,72.96
2023-02-06T22:53:05.583Z,72.54
2023-02-06T22:55:53.365Z,72.63
2023-02-06T22:58:28.827Z,72.73
2023-02-06T23:01:04.116Z,72.11
2023-02-06T23:03:33.488Z,72.39
2023-02-06T23:06:03.667Z,72.28
2023-02-06T23:08:35.653Z,72.00
2023-02-06T23:11:05.200Z,71.84
2023-02-06T23:13:34.688Z,71.93
2023-02-06T23:16:04.283Z,72.12
2023-02-06T23:18:33.636Z,71.73
2023-02-06T23:21:10.699Z,71.99
2023-02-06T23:23:47.194Z,71.74
2023-02-06T23:28:52.935Z,71.40
2023-02-06T23:31:22.122Z,71.34
2023-02-06T23:33:56.888Z,71.60
2023-02-06T23:36:32.433Z,71.47
2023-02-06T23:39:06.935Z,71.40
2023-02-06T23:41:36.300Z,71.43
2023-02-06T23:44:08.594Z,71.27
2023-02-06T23:46:49.388Z,71.30
2023-02-06T23:49:19.795Z,71.49
2023-02-06T23:51:48.869Z,71.44
2023-02-06T23:54:22.154Z,71.41
2023-02-06T23:56:51.359Z,71.49
2023-02-06T23:59:21.423Z,71.59
